ITY1764 LICJ-LIML
Flight info
| Callsign | ITY1764 |
|---|---|
| Flight time | N/A |
| Altitude | 38000 |
| Route | GIANO DCT KARDU DCT EMBOS DCT GIPIX DCT KALMO |
| Aircraft | A20N/M-SDE2E3FGHIRWXY/LB1 |
Departure
| Time | 2026-05-07 12:12 |
|---|---|
| Airport | Falcone–Borsellino Airport (LICJ) |
Arrival
| Time | N/A |
|---|---|
| Airport | Milano Linate Airport (LIML) |
| Time | Latitude | Longitude | Altitude | Speed | Heading |
|---|---|---|---|---|---|
| 2026-05-07 11:49 | 38.18552 | 13.10606 | 58 ft | 0 kts | 336° |
| 2026-05-07 12:02 | 38.18551 | 13.10607 | 64 ft | 1 kts | 336° |
| 2026-05-07 12:03 | 38.18540 | 13.10613 | 61 ft | 2 kts | 337° |
| 2026-05-07 12:03 | 38.18528 | 13.10619 | 57 ft | 2 kts | 337° |
| 2026-05-07 12:03 | 38.18516 | 13.10626 | 55 ft | 2 kts | 339° |
| 2026-05-07 12:03 | 38.18505 | 13.10631 | 61 ft | 3 kts | 317° |
| 2026-05-07 12:04 | 38.18498 | 13.10648 | 62 ft | 4 kts | 255° |
| 2026-05-07 12:04 | 38.18498 | 13.10654 | 58 ft | 0 kts | 229° |
| 2026-05-07 12:06 | 38.18496 | 13.10650 | 58 ft | 2 kts | 228° |
| 2026-05-07 12:06 | 38.18479 | 13.10628 | 60 ft | 5 kts | 224° |
| 2026-05-07 12:06 | 38.18461 | 13.10581 | 60 ft | 8 kts | 246° |
| 2026-05-07 12:06 | 38.18422 | 13.10520 | 63 ft | 10 kts | 199° |
| 2026-05-07 12:07 | 38.18344 | 13.10483 | 62 ft | 14 kts | 205° |
| 2026-05-07 12:07 | 38.18297 | 13.10386 | 60 ft | 14 kts | 236° |
| 2026-05-07 12:07 | 38.18210 | 13.10348 | 61 ft | 14 kts | 220° |
| 2026-05-07 12:07 | 38.18168 | 13.10234 | 61 ft | 16 kts | 247° |
| 2026-05-07 12:08 | 38.18121 | 13.10092 | 58 ft | 19 kts | 247° |
| 2026-05-07 12:08 | 38.18064 | 13.09926 | 63 ft | 22 kts | 246° |
| 2026-05-07 12:08 | 38.18002 | 13.09739 | 61 ft | 24 kts | 245° |
| 2026-05-07 12:08 | 38.17933 | 13.09534 | 64 ft | 26 kts | 247° |
| 2026-05-07 12:09 | 38.17859 | 13.09316 | 66 ft | 26 kts | 245° |
| 2026-05-07 12:09 | 38.17786 | 13.09095 | 62 ft | 30 kts | 246° |
| 2026-05-07 12:09 | 38.17661 | 13.08879 | 59 ft | 31 kts | 216° |
| 2026-05-07 12:09 | 38.17479 | 13.08725 | 64 ft | 31 kts | 200° |
| 2026-05-07 12:10 | 38.17263 | 13.08645 | 66 ft | 34 kts | 197° |
| 2026-05-07 12:10 | 38.17034 | 13.08550 | 65 ft | 35 kts | 197° |
| 2026-05-07 12:10 | 38.16796 | 13.08458 | 62 ft | 36 kts | 196° |
| 2026-05-07 12:10 | 38.16650 | 13.08536 | 63 ft | 2 kts | 85° |
| 2026-05-07 12:11 | 38.16651 | 13.08553 | 65 ft | 2 kts | 85° |
| 2026-05-07 12:11 | 38.16657 | 13.08581 | 67 ft | 4 kts | 63° |
| 2026-05-07 12:11 | 38.16688 | 13.08601 | 65 ft | 16 kts | 21° |
| 2026-05-07 12:11 | 38.17008 | 13.08776 | 61 ft | 82 kts | 24° |
| 2026-05-07 12:12 | 38.17698 | 13.09166 | 72 ft | 132 kts | 23° |
| 2026-05-07 12:12 | 38.18627 | 13.09698 | 371 ft | 145 kts | 25° |
| 2026-05-07 12:12 | 38.19527 | 13.10199 | 1027 ft | 141 kts | 24° |
| 2026-05-07 12:12 | 38.20472 | 13.10691 | 1426 ft | 154 kts | 21° |
| 2026-05-07 12:13 | 38.21537 | 13.11213 | 1693 ft | 176 kts | 21° |
| 2026-05-07 12:13 | 38.22721 | 13.11849 | 2017 ft | 195 kts | 25° |
| 2026-05-07 12:13 | 38.24019 | 13.12617 | 2359 ft | 216 kts | 26° |
| 2026-05-07 12:13 | 38.25504 | 13.13292 | 2724 ft | 240 kts | 6° |
| 2026-05-07 12:14 | 38.27233 | 13.13006 | 3234 ft | 264 kts | 342° |
| 2026-05-07 12:14 | 38.28968 | 13.12072 | 4032 ft | 273 kts | 335° |
| 2026-05-07 12:14 | 38.30684 | 13.10992 | 5068 ft | 276 kts | 335° |
| 2026-05-07 12:14 | 38.32415 | 13.09943 | 6176 ft | 274 kts | 337° |
| 2026-05-07 12:15 | 38.34132 | 13.08974 | 7087 ft | 280 kts | 339° |
| 2026-05-07 12:15 | 38.35986 | 13.07984 | 7933 ft | 287 kts | 338° |
| 2026-05-07 12:15 | 38.37850 | 13.07020 | 8822 ft | 295 kts | 338° |
| 2026-05-07 12:15 | 38.39788 | 13.06025 | 9636 ft | 301 kts | 339° |
| 2026-05-07 12:16 | 38.41746 | 13.05021 | 10435 ft | 310 kts | 338° |
| 2026-05-07 12:16 | 38.43821 | 13.03955 | 10796 ft | 334 kts | 337° |
| 2026-05-07 12:16 | 38.46040 | 13.02810 | 11181 ft | 354 kts | 336° |
| 2026-05-07 12:16 | 38.48308 | 13.01637 | 11982 ft | 356 kts | 336° |
| 2026-05-07 12:17 | 38.50612 | 13.00448 | 12867 ft | 360 kts | 336° |
| 2026-05-07 12:17 | 38.52955 | 12.99237 | 13668 ft | 365 kts | 335° |
| 2026-05-07 12:17 | 38.55325 | 12.98010 | 14415 ft | 368 kts | 335° |
| 2026-05-07 12:17 | 38.57709 | 12.96774 | 15160 ft | 372 kts | 335° |
| 2026-05-07 12:18 | 38.60121 | 12.95520 | 15900 ft | 375 kts | 334° |
| 2026-05-07 12:18 | 38.62552 | 12.94256 | 16623 ft | 379 kts | 334° |
| 2026-05-07 12:18 | 38.65004 | 12.92980 | 17347 ft | 383 kts | 334° |
| 2026-05-07 12:18 | 38.67480 | 12.91692 | 18080 ft | 386 kts | 334° |
| 2026-05-07 12:19 | 38.69957 | 12.90401 | 18721 ft | 389 kts | 333° |
| 2026-05-07 12:19 | 38.72446 | 12.89103 | 19335 ft | 392 kts | 333° |
| 2026-05-07 12:19 | 38.74981 | 12.87780 | 19969 ft | 394 kts | 333° |
| 2026-05-07 12:19 | 38.77534 | 12.86447 | 20586 ft | 397 kts | 332° |
| 2026-05-07 12:20 | 38.80108 | 12.85102 | 21209 ft | 400 kts | 332° |
| 2026-05-07 12:20 | 38.82704 | 12.83743 | 21815 ft | 403 kts | 332° |
| 2026-05-07 12:20 | 38.85313 | 12.82377 | 22426 ft | 407 kts | 332° |
| 2026-05-07 12:20 | 38.87941 | 12.80999 | 23019 ft | 410 kts | 331° |
| 2026-05-07 12:21 | 38.90597 | 12.79606 | 23561 ft | 414 kts | 331° |
| 2026-05-07 12:21 | 38.93269 | 12.78204 | 24104 ft | 415 kts | 331° |
| 2026-05-07 12:21 | 38.95952 | 12.76796 | 24686 ft | 415 kts | 331° |
| 2026-05-07 12:21 | 38.98635 | 12.75386 | 25197 ft | 417 kts | 330° |
| 2026-05-07 12:22 | 39.01309 | 12.73979 | 25716 ft | 418 kts | 330° |
| 2026-05-07 12:22 | 39.04004 | 12.72560 | 26216 ft | 420 kts | 330° |
| 2026-05-07 12:22 | 39.06677 | 12.71150 | 26707 ft | 421 kts | 329° |
| 2026-05-07 12:22 | 39.09395 | 12.69717 | 27188 ft | 422 kts | 329° |
| 2026-05-07 12:23 | 39.12124 | 12.68275 | 27694 ft | 423 kts | 329° |
| 2026-05-07 12:23 | 39.14847 | 12.66837 | 28180 ft | 424 kts | 329° |
| 2026-05-07 12:23 | 39.17582 | 12.65390 | 28618 ft | 425 kts | 328° |
| 2026-05-07 12:23 | 39.20319 | 12.63940 | 29035 ft | 427 kts | 328° |
| 2026-05-07 12:24 | 39.23073 | 12.62480 | 29442 ft | 428 kts | 328° |
| 2026-05-07 12:24 | 39.25834 | 12.61015 | 29855 ft | 429 kts | 328° |
| 2026-05-07 12:24 | 39.28607 | 12.59543 | 30217 ft | 431 kts | 328° |
| 2026-05-07 12:24 | 39.31386 | 12.58066 | 30522 ft | 433 kts | 327° |
| 2026-05-07 12:25 | 39.34152 | 12.56595 | 30832 ft | 435 kts | 327° |
| 2026-05-07 12:25 | 39.36947 | 12.55107 | 31252 ft | 435 kts | 327° |
| 2026-05-07 12:25 | 39.39741 | 12.53623 | 31693 ft | 433 kts | 326° |
| 2026-05-07 12:25 | 39.42524 | 12.52144 | 32119 ft | 432 kts | 326° |
| 2026-05-07 12:26 | 39.45298 | 12.50666 | 32534 ft | 430 kts | 325° |
| 2026-05-07 12:26 | 39.48061 | 12.49192 | 32953 ft | 429 kts | 325° |
| 2026-05-07 12:26 | 39.50818 | 12.47720 | 33364 ft | 427 kts | 324° |
| 2026-05-07 12:26 | 39.53560 | 12.46254 | 33767 ft | 425 kts | 324° |
| 2026-05-07 12:27 | 39.56295 | 12.44791 | 34135 ft | 424 kts | 323° |
| 2026-05-07 12:27 | 39.59017 | 12.43332 | 34531 ft | 421 kts | 323° |
| 2026-05-07 12:27 | 39.61707 | 12.41893 | 35004 ft | 416 kts | 323° |
| 2026-05-07 12:27 | 39.64372 | 12.40463 | 35360 ft | 414 kts | 323° |
| 2026-05-07 12:28 | 39.67040 | 12.39025 | 35565 ft | 415 kts | 323° |
| 2026-05-07 12:28 | 39.68811 | 12.38069 | 35741 ft | 415 kts | 323° |
| 2026-05-07 12:28 | 39.72338 | 12.36169 | 36130 ft | 413 kts | 323° |
| 2026-05-07 12:28 | 39.74990 | 12.34740 | 36418 ft | 412 kts | 323° |
| 2026-05-07 12:29 | 39.77630 | 12.33315 | 36691 ft | 410 kts | 323° |
| 2026-05-07 12:29 | 39.79412 | 12.32353 | 36867 ft | 410 kts | 323° |
| 2026-05-07 12:29 | 39.82008 | 12.30949 | 37167 ft | 408 kts | 323° |
| 2026-05-07 12:29 | 39.84632 | 12.29527 | 37446 ft | 406 kts | 323° |
| 2026-05-07 12:30 | 39.87239 | 12.28115 | 37698 ft | 405 kts | 323° |
| 2026-05-07 12:30 | 39.89840 | 12.26705 | 37922 ft | 405 kts | 323° |
| 2026-05-07 12:30 | 39.92441 | 12.25294 | 37976 ft | 404 kts | 323° |
| 2026-05-07 12:31 | 39.97630 | 12.22479 | 37978 ft | 403 kts | 323° |
| 2026-05-07 12:31 | 40.02807 | 12.19663 | 37983 ft | 403 kts | 323° |
| 2026-05-07 12:32 | 40.07955 | 12.16860 | 37983 ft | 403 kts | 323° |
| 2026-05-07 12:32 | 40.13142 | 12.14032 | 37989 ft | 403 kts | 323° |
| 2026-05-07 12:33 | 40.20917 | 12.09785 | 37986 ft | 403 kts | 323° |
| 2026-05-07 12:33 | 40.26065 | 12.06967 | 37984 ft | 403 kts | 323° |
| 2026-05-07 12:34 | 40.31263 | 12.04113 | 38030 ft | 404 kts | 323° |
| 2026-05-07 12:34 | 40.36451 | 12.01263 | 38009 ft | 404 kts | 323° |
| 2026-05-07 12:35 | 40.41611 | 11.98426 | 37988 ft | 404 kts | 323° |
| 2026-05-07 12:35 | 40.46792 | 11.95572 | 37992 ft | 404 kts | 323° |
| 2026-05-07 12:36 | 40.51973 | 11.92713 | 38022 ft | 403 kts | 323° |
| 2026-05-07 12:36 | 40.57155 | 11.89847 | 38001 ft | 403 kts | 323° |
| 2026-05-07 12:37 | 40.62301 | 11.86998 | 37999 ft | 403 kts | 323° |
| 2026-05-07 12:37 | 40.67472 | 11.84131 | 37996 ft | 403 kts | 323° |
| 2026-05-07 12:38 | 40.72627 | 11.81267 | 37992 ft | 402 kts | 323° |
| 2026-05-07 12:38 | 40.77794 | 11.78388 | 37983 ft | 403 kts | 323° |
| 2026-05-07 12:39 | 40.82942 | 11.75518 | 37985 ft | 403 kts | 323° |
| 2026-05-07 12:39 | 40.88115 | 11.72630 | 37989 ft | 404 kts | 323° |
| 2026-05-07 12:40 | 40.93297 | 11.69731 | 37992 ft | 404 kts | 323° |
| 2026-05-07 12:40 | 40.98489 | 11.66820 | 38006 ft | 407 kts | 323° |
| 2026-05-07 12:41 | 41.03721 | 11.63874 | 38005 ft | 413 kts | 324° |
| 2026-05-07 12:41 | 41.09007 | 11.60911 | 38004 ft | 411 kts | 324° |
| 2026-05-07 12:42 | 41.14274 | 11.57947 | 38004 ft | 412 kts | 324° |
| 2026-05-07 12:42 | 41.19555 | 11.54967 | 38040 ft | 412 kts | 324° |
| 2026-05-07 12:43 | 41.24885 | 11.51940 | 38003 ft | 419 kts | 325° |
| 2026-05-07 12:43 | 41.30243 | 11.48915 | 38005 ft | 416 kts | 325° |
| 2026-05-07 12:44 | 41.35541 | 11.45912 | 38005 ft | 417 kts | 325° |
| 2026-05-07 12:44 | 41.40872 | 11.42882 | 38006 ft | 416 kts | 325° |
| 2026-05-07 12:45 | 41.46238 | 11.39815 | 38011 ft | 423 kts | 326° |
| 2026-05-07 12:45 | 41.51657 | 11.36728 | 38012 ft | 422 kts | 326° |
| 2026-05-07 12:46 | 41.57069 | 11.33642 | 38010 ft | 422 kts | 326° |
| 2026-05-07 12:46 | 41.62478 | 11.30546 | 38019 ft | 422 kts | 326° |
| 2026-05-07 12:47 | 41.67900 | 11.27426 | 38007 ft | 430 kts | 327° |
| 2026-05-07 12:47 | 41.73411 | 11.24263 | 38006 ft | 430 kts | 327° |
| 2026-05-07 12:48 | 41.78885 | 11.21119 | 38007 ft | 429 kts | 327° |
| 2026-05-07 12:48 | 41.84393 | 11.17943 | 38007 ft | 430 kts | 327° |
| 2026-05-07 12:49 | 41.89903 | 11.14754 | 38006 ft | 433 kts | 327° |
| 2026-05-07 12:49 | 41.95464 | 11.11537 | 38005 ft | 433 kts | 327° |
| 2026-05-07 12:50 | 42.00950 | 11.08360 | 38005 ft | 432 kts | 327° |
| 2026-05-07 12:50 | 42.06477 | 11.05148 | 38005 ft | 432 kts | 327° |
| 2026-05-07 12:51 | 42.12025 | 11.01912 | 38009 ft | 436 kts | 328° |
| 2026-05-07 12:51 | 42.17561 | 10.98687 | 38015 ft | 435 kts | 328° |
| 2026-05-07 12:52 | 42.23119 | 10.95442 | 38000 ft | 434 kts | 328° |
| 2026-05-07 12:52 | 42.28661 | 10.92198 | 37998 ft | 433 kts | 328° |
| 2026-05-07 12:53 | 42.34197 | 10.88951 | 37993 ft | 433 kts | 328° |
| 2026-05-07 12:53 | 42.39719 | 10.85705 | 37996 ft | 433 kts | 328° |
| 2026-05-07 12:54 | 42.49277 | 10.80073 | 37988 ft | 433 kts | 328° |